createdAt,value
2024-03-08T00:00:16.493Z,6.47
2024-03-08T00:02:45.771Z,6.35
2024-03-08T00:05:15.677Z,6.40
2024-03-08T00:07:44.146Z,6.55
2024-03-08T00:10:14.427Z,6.68
2024-03-08T00:12:45.356Z,6.68
2024-03-08T00:15:15.327Z,6.70
2024-03-08T00:17:43.713Z,6.77
2024-03-08T00:20:12.153Z,6.81
2024-03-08T00:22:42.026Z,6.86
2024-03-08T00:25:11.046Z,6.82
2024-03-08T00:27:39.400Z,6.64
2024-03-08T00:30:09.066Z,6.64
2024-03-08T00:32:38.362Z,6.64
2024-03-08T00:35:08.829Z,6.57
2024-03-08T00:37:37.098Z,6.40
2024-03-08T00:40:10.569Z,6.29
2024-03-08T00:42:39.607Z,6.21
2024-03-08T00:45:08.254Z,6.20
2024-03-08T00:47:36.384Z,6.34
2024-03-08T00:50:05.953Z,6.37
2024-03-08T00:52:36.083Z,6.31
2024-03-08T00:55:04.162Z,6.36
2024-03-08T00:57:34.235Z,6.34
2024-03-08T01:00:06.852Z,6.35
2024-03-08T01:02:36.952Z,6.20
2024-03-08T01:05:07.196Z,6.44
2024-03-08T01:07:35.311Z,6.50
2024-03-08T01:10:03.447Z,6.43
2024-03-08T01:12:31.646Z,6.40
2024-03-08T01:15:01.139Z,6.50
2024-03-08T01:17:29.422Z,6.59
2024-03-08T01:19:57.539Z,6.58
2024-03-08T01:22:25.541Z,6.54
2024-03-08T01:24:53.518Z,6.55
2024-03-08T01:27:21.498Z,6.36
2024-03-08T01:29:49.515Z,6.22
2024-03-08T01:32:20.616Z,6.08
2024-03-08T01:34:48.601Z,6.13
2024-03-08T01:37:16.812Z,6.18
2024-03-08T01:39:44.869Z,6.22
2024-03-08T01:42:14.346Z,6.29
2024-03-08T01:44:42.385Z,6.26
2024-03-08T01:47:10.324Z,6.03
2024-03-08T01:49:39.737Z,5.93
2024-03-08T01:52:08.226Z,5.92
2024-03-08T01:54:36.189Z,5.92
2024-03-08T01:57:04.255Z,6.02
2024-03-08T01:59:32.223Z,6.13
2024-03-08T02:02:01.880Z,6.15
2024-03-08T02:04:31.777Z,6.21
2024-03-08T02:07:01.447Z,6.12
2024-03-08T02:09:29.651Z,6.26
2024-03-08T02:11:57.685Z,6.26
2024-03-08T02:14:25.920Z,6.21
2024-03-08T02:16:55.327Z,6.32
2024-03-08T02:19:23.377Z,6.25
2024-03-08T02:21:52.691Z,6.24
2024-03-08T02:24:20.679Z,6.37
2024-03-08T02:26:48.685Z,6.32
2024-03-08T02:29:16.757Z,6.27
2024-03-08T02:31:44.700Z,6.30
2024-03-08T02:34:12.821Z,6.23
2024-03-08T02:36:40.765Z,6.10
2024-03-08T02:39:11.754Z,5.92
2024-03-08T02:41:39.844Z,5.76
2024-03-08T02:44:08.410Z,5.75
2024-03-08T02:46:37.023Z,5.80
2024-03-08T02:49:04.986Z,5.93
2024-03-08T02:51:33.053Z,6.05
2024-03-08T02:54:01.036Z,6.10
2024-03-08T02:56:31.440Z,6.08
2024-03-08T02:58:59.427Z,6.06
2024-03-08T03:01:27.576Z,6.09
2024-03-08T03:03:55.675Z,6.05
2024-03-08T03:06:23.662Z,5.97
2024-03-08T03:08:52.610Z,5.95
2024-03-08T03:11:20.764Z,6.02
2024-03-08T03:13:50.921Z,6.04
2024-03-08T03:16:22.013Z,6.10
2024-03-08T03:18:50.455Z,6.18
2024-03-08T03:21:18.760Z,6.08
2024-03-08T03:23:47.099Z,6.01
2024-03-08T03:26:18.678Z,6.18
2024-03-08T03:28:46.661Z,6.13
2024-03-08T03:31:16.408Z,6.08
2024-03-08T03:33:44.677Z,6.09
2024-03-08T03:36:13.177Z,6.01
2024-03-08T03:38:41.291Z,6.09
2024-03-08T03:41:11.798Z,6.15
2024-03-08T03:43:40.176Z,6.10
2024-03-08T03:46:09.300Z,6.21
2024-03-08T03:48:38.781Z,6.22
2024-03-08T03:51:07.002Z,6.19
2024-03-08T03:53:35.034Z,6.23
2024-03-08T03:56:03.019Z,6.18
2024-03-08T03:58:30.939Z,6.08
2024-03-08T04:00:58.925Z,6.10
2024-03-08T04:03:26.884Z,6.06
2024-03-08T04:05:56.406Z,6.02
2024-03-08T04:08:24.894Z,6.15
2024-03-08T04:10:53.715Z,6.19
2024-03-08T04:13:22.482Z,6.29
2024-03-08T04:15:50.720Z,6.31
2024-03-08T04:18:19.510Z,6.29
2024-03-08T04:20:47.783Z,6.25
2024-03-08T04:23:18.857Z,6.08
2024-03-08T04:25:47.572Z,6.06
2024-03-08T04:28:15.517Z,6.27
2024-03-08T04:30:43.518Z,6.11
2024-03-08T04:33:12.762Z,6.10
2024-03-08T04:35:40.860Z,6.11
2024-03-08T04:38:08.880Z,6.13
2024-03-08T04:40:38.233Z,6.02
2024-03-08T04:43:06.333Z,6.01
2024-03-08T04:45:34.986Z,5.96
2024-03-08T04:48:03.025Z,6.10
2024-03-08T04:50:31.441Z,6.05
2024-03-08T04:52:59.550Z,6.07
2024-03-08T04:55:27.505Z,6.04
2024-03-08T04:57:56.910Z,6.01
2024-03-08T05:00:25.151Z,6.06
2024-03-08T05:02:54.698Z,6.03
2024-03-08T05:05:24.075Z,5.92
2024-03-08T05:07:52.073Z,6.04
2024-03-08T05:10:20.026Z,6.05
2024-03-08T05:12:48.459Z,6.13
2024-03-08T05:15:18.252Z,6.08
2024-03-08T05:17:46.324Z,5.91
2024-03-08T05:20:14.852Z,5.85
2024-03-08T05:22:42.885Z,5.82
2024-03-08T05:25:11.683Z,5.86
2024-03-08T05:27:39.783Z,5.92
2024-03-08T05:30:15.623Z,5.96
2024-03-08T05:32:45.901Z,5.89
2024-03-08T05:35:14.041Z,5.90
2024-03-08T05:37:41.985Z,5.83
2024-03-08T05:40:16.008Z,5.82
2024-03-08T05:42:45.717Z,5.79
2024-03-08T05:45:13.956Z,5.96
2024-03-08T05:47:42.025Z,5.91
2024-03-08T05:50:12.694Z,5.94
2024-03-08T05:52:40.836Z,6.00
2024-03-08T05:55:11.420Z,5.92
2024-03-08T05:57:41.425Z,5.98
2024-03-08T06:00:12.223Z,6.10
2024-03-08T06:02:42.640Z,6.15
2024-03-08T06:05:12.998Z,6.26
2024-03-08T06:07:41.619Z,6.35
2024-03-08T06:10:13.451Z,6.34
2024-03-08T06:12:42.605Z,6.30
2024-03-08T06:15:15.246Z,6.32
2024-03-08T06:17:43.382Z,6.46
2024-03-08T06:20:14.795Z,6.54
2024-03-08T06:22:43.222Z,6.45
2024-03-08T06:25:12.422Z,6.54
2024-03-08T06:27:40.469Z,6.59
2024-03-08T06:30:11.056Z,6.49
2024-03-08T06:32:39.349Z,6.38
2024-03-08T06:35:08.488Z,6.40
2024-03-08T06:37:37.818Z,6.33
2024-03-08T06:40:09.229Z,6.14
2024-03-08T06:42:37.312Z,6.22
2024-03-08T06:45:06.957Z,6.28
2024-03-08T06:47:35.714Z,6.15
2024-03-08T06:50:03.894Z,6.22
2024-03-08T06:52:32.023Z,6.15
2024-03-08T06:55:03.053Z,6.21
2024-03-08T06:57:31.766Z,6.24
2024-03-08T06:59:59.779Z,6.26
2024-03-08T07:02:27.808Z,6.28
2024-03-08T07:04:55.886Z,6.34
2024-03-08T07:07:23.905Z,6.29
2024-03-08T07:09:51.910Z,6.10
2024-03-08T07:12:22.104Z,6.22
2024-03-08T07:14:50.153Z,6.27
2024-03-08T07:17:18.731Z,6.30
2024-03-08T07:19:47.398Z,6.27
2024-03-08T07:22:15.473Z,6.31
2024-03-08T07:24:59.314Z,6.41
2024-03-08T07:27:30.295Z,6.31
2024-03-08T07:32:31.269Z,6.51
2024-03-08T07:34:59.637Z,6.47
2024-03-08T07:37:27.572Z,6.51
2024-03-08T07:39:55.541Z,6.56
2024-03-08T07:42:24.308Z,6.66
2024-03-08T07:44:54.014Z,6.77
2024-03-08T07:47:25.222Z,6.70
2024-03-08T07:49:55.188Z,6.76
2024-03-08T07:52:23.236Z,6.62
2024-03-08T07:54:51.213Z,6.77
2024-03-08T07:57:19.248Z,6.92
2024-03-08T07:59:47.206Z,7.02
2024-03-08T08:02:16.647Z,7.19
2024-03-08T08:04:46.277Z,7.32
2024-03-08T08:07:15.809Z,7.30
2024-03-08T08:09:44.003Z,7.21
2024-03-08T08:12:13.257Z,6.96
2024-03-08T08:14:42.436Z,6.81
2024-03-08T08:17:10.806Z,6.91
2024-03-08T08:19:40.318Z,6.93
2024-03-08T08:22:10.207Z,7.18
2024-03-08T08:24:39.005Z,7.22
2024-03-08T08:27:07.961Z,7.35
2024-03-08T08:29:36.676Z,7.48
2024-03-08T08:32:05.103Z,7.33
2024-03-08T08:34:33.186Z,7.30
2024-03-08T08:37:03.000Z,7.27
2024-03-08T08:39:30.959Z,7.35
2024-03-08T08:41:59.166Z,7.37
2024-03-08T08:44:27.306Z,7.36
2024-03-08T08:46:59.844Z,7.31
2024-03-08T08:49:33.993Z,7.37
2024-03-08T08:52:12.113Z,7.36
2024-03-08T08:54:48.712Z,7.26
2024-03-08T08:57:18.665Z,7.41
2024-03-08T08:59:46.874Z,7.39
2024-03-08T09:02:18.638Z,7.28
2024-03-08T09:04:47.098Z,7.42
2024-03-08T09:07:17.412Z,7.57
2024-03-08T09:09:45.565Z,7.60
2024-03-08T09:12:14.447Z,7.63
2024-03-08T09:14:42.564Z,7.68
2024-03-08T09:17:10.749Z,7.85
2024-03-08T09:19:38.717Z,7.71
2024-03-08T09:22:06.814Z,7.60
2024-03-08T09:24:36.168Z,7.53
2024-03-08T09:27:04.405Z,7.34
2024-03-08T09:29:32.370Z,7.50
2024-03-08T09:32:00.323Z,7.54
2024-03-08T09:34:36.261Z,7.44
2024-03-08T09:37:06.396Z,7.38
2024-03-08T09:39:35.754Z,7.42
2024-03-08T09:42:03.756Z,7.27
2024-03-08T09:44:31.716Z,7.32
2024-03-08T09:47:00.478Z,7.30
2024-03-08T09:49:28.632Z,7.36
2024-03-08T09:51:56.914Z,7.44
2024-03-08T09:54:25.930Z,7.66
2024-03-08T09:56:55.394Z,7.60
2024-03-08T09:59:40.483Z,7.25
2024-03-08T10:02:08.690Z,7.23
2024-03-08T10:04:36.840Z,7.22
2024-03-08T10:07:04.795Z,7.38
2024-03-08T10:09:32.711Z,7.43
2024-03-08T10:12:02.075Z,7.53
2024-03-08T10:14:30.125Z,7.51
2024-03-08T10:17:01.318Z,7.46
2024-03-08T10:19:31.413Z,7.43
2024-03-08T10:22:00.360Z,7.43
2024-03-08T10:24:28.559Z,7.39
2024-03-08T10:26:57.717Z,7.29
2024-03-08T10:29:27.028Z,7.12
2024-03-08T10:31:57.110Z,7.03
2024-03-08T10:34:25.614Z,7.05
2024-03-08T10:36:55.700Z,6.99
2024-03-08T10:39:24.837Z,7.05
2024-03-08T10:41:56.860Z,7.09
2024-03-08T10:44:42.932Z,7.21
2024-03-08T10:47:17.347Z,7.27
2024-03-08T10:49:53.463Z,7.38
2024-03-08T10:52:21.855Z,7.26
2024-03-08T10:54:50.152Z,7.23
2024-03-08T10:57:20.261Z,7.31
2024-03-08T10:59:51.064Z,7.16
2024-03-08T11:02:20.764Z,7.22
2024-03-08T11:04:50.291Z,7.29
2024-03-08T11:07:21.085Z,7.39
2024-03-08T11:09:50.085Z,7.34
2024-03-08T11:12:22.155Z,7.32
2024-03-08T11:14:51.988Z,7.23
2024-03-08T11:17:23.704Z,7.39
2024-03-08T11:19:53.360Z,7.69
2024-03-08T11:22:28.321Z,7.70
2024-03-08T11:24:57.099Z,7.86
2024-03-08T11:27:31.146Z,7.97
2024-03-08T11:30:14.074Z,8.32
2024-03-08T11:32:47.599Z,8.43
2024-03-08T11:35:21.100Z,8.20
2024-03-08T11:37:49.226Z,8.10
2024-03-08T11:40:17.909Z,8.06
2024-03-08T11:42:48.687Z,8.03
2024-03-08T11:45:18.816Z,8.24
2024-03-08T11:47:47.970Z,8.25
2024-03-08T11:50:16.045Z,8.43
2024-03-08T11:52:45.990Z,8.55
2024-03-08T11:55:14.469Z,8.30
2024-03-08T11:57:43.255Z,8.15
2024-03-08T12:00:24.964Z,7.97
2024-03-08T12:03:11.802Z,7.68
2024-03-08T12:05:39.819Z,7.51
2024-03-08T12:08:10.614Z,7.24
2024-03-08T12:10:38.833Z,7.25
2024-03-08T12:13:12.615Z,7.27
2024-03-08T12:15:42.329Z,7.30
2024-03-08T12:18:11.845Z,7.23
2024-03-08T12:20:40.551Z,7.09
2024-03-08T12:23:08.482Z,7.04
2024-03-08T12:25:37.376Z,7.09
2024-03-08T12:28:16.093Z,7.16
2024-03-08T12:30:52.281Z,7.29
2024-03-08T12:33:20.368Z,7.13
2024-03-08T12:35:59.673Z,7.05
2024-03-08T12:38:32.815Z,7.06
2024-03-08T12:41:01.283Z,7.09
2024-03-08T12:43:31.527Z,6.99
2024-03-08T12:46:01.357Z,6.87
2024-03-08T12:48:29.332Z,6.94
2024-03-08T12:50:57.288Z,6.90
2024-03-08T12:53:26.817Z,6.81
2024-03-08T12:55:57.638Z,6.88
2024-03-08T12:58:27.213Z,6.86
2024-03-08T13:00:55.278Z,6.84
2024-03-08T13:03:24.734Z,6.87
2024-03-08T13:05:52.654Z,6.89
2024-03-08T13:08:21.661Z,6.86
2024-03-08T13:10:50.028Z,6.94
2024-03-08T13:13:18.453Z,6.84
2024-03-08T13:15:46.806Z,6.85
2024-03-08T13:18:17.200Z,6.95
2024-03-08T13:20:50.599Z,7.07
2024-03-08T13:23:18.805Z,7.00
2024-03-08T13:25:48.817Z,6.97
2024-03-08T13:28:17.394Z,6.89
2024-03-08T13:30:45.602Z,6.90
2024-03-08T13:33:14.855Z,6.73
2024-03-08T13:35:42.851Z,6.49
2024-03-08T13:38:14.472Z,6.50
2024-03-08T13:40:42.596Z,6.56
2024-03-08T13:43:10.608Z,6.46
2024-03-08T13:45:39.953Z,6.53
2024-03-08T13:48:08.547Z,6.68
2024-03-08T13:50:36.640Z,6.68
2024-03-08T13:53:05.109Z,6.53
2024-03-08T13:55:34.931Z,6.56
2024-03-08T13:58:03.843Z,6.47
2024-03-08T14:00:34.894Z,6.36
2024-03-08T14:03:06.701Z,6.46
2024-03-08T14:05:36.076Z,6.49
2024-03-08T14:08:05.470Z,6.44
2024-03-08T14:10:35.605Z,6.42
2024-03-08T14:13:03.967Z,6.53
2024-03-08T14:15:32.229Z,6.50
2024-03-08T14:18:00.761Z,6.43
2024-03-08T14:20:28.815Z,6.45
2024-03-08T14:22:57.551Z,6.44
2024-03-08T14:25:26.548Z,6.36
2024-03-08T14:27:59.528Z,6.31
2024-03-08T14:30:39.190Z,6.42
2024-03-08T14:33:09.193Z,6.47
2024-03-08T14:35:37.190Z,6.53
2024-03-08T14:38:05.548Z,6.62
2024-03-08T14:40:33.591Z,6.67
2024-03-08T14:43:06.160Z,6.61
2024-03-08T14:45:35.019Z,6.66
2024-03-08T14:48:03.881Z,6.58
2024-03-08T14:50:33.052Z,6.53
2024-03-08T14:53:01.841Z,6.55
2024-03-08T14:55:31.670Z,6.60
2024-03-08T14:57:59.731Z,6.63
2024-03-08T15:00:35.118Z,6.66
2024-03-08T15:03:06.153Z,6.59
2024-03-08T15:05:39.319Z,6.44
2024-03-08T15:08:12.614Z,6.44
2024-03-08T15:10:42.372Z,6.44
2024-03-08T15:13:17.436Z,6.54
2024-03-08T15:15:47.181Z,6.56
2024-03-08T15:18:15.321Z,6.58
2024-03-08T15:20:43.272Z,6.42
2024-03-08T15:23:11.829Z,6.46
2024-03-08T15:25:43.162Z,6.41
2024-03-08T15:28:16.034Z,6.39
2024-03-08T15:30:47.934Z,6.38
2024-03-08T15:33:25.421Z,6.38
2024-03-08T15:36:00.007Z,6.47
2024-03-08T15:38:28.726Z,6.38
2024-03-08T15:40:56.899Z,6.32
2024-03-08T15:43:26.650Z,6.33
2024-03-08T15:45:56.022Z,6.24
2024-03-08T15:48:26.183Z,6.17
2024-03-08T15:50:54.127Z,6.25
2024-03-08T15:53:22.176Z,6.26
2024-03-08T15:55:50.499Z,6.26
2024-03-08T15:58:18.568Z,6.19
2024-03-08T16:00:49.198Z,6.16
2024-03-08T16:03:17.371Z,6.27
2024-03-08T16:05:46.871Z,6.23
2024-03-08T16:08:17.850Z,6.12
2024-03-08T16:10:48.267Z,6.18
2024-03-08T16:13:17.297Z,6.22
2024-03-08T16:15:48.818Z,6.19
2024-03-08T16:18:22.384Z,6.24
2024-03-08T16:20:53.366Z,6.16
2024-03-08T16:23:21.545Z,6.26
2024-03-08T16:25:50.038Z,6.21
2024-03-08T16:28:18.410Z,6.36
2024-03-08T16:30:49.834Z,6.34
2024-03-08T16:33:19.677Z,6.30
2024-03-08T16:35:57.354Z,6.30
2024-03-08T16:38:26.725Z,6.27
2024-03-08T16:40:56.291Z,6.25
2024-03-08T16:43:26.861Z,6.24
2024-03-08T16:45:59.985Z,6.15
2024-03-08T16:48:31.596Z,6.17
2024-03-08T16:50:59.720Z,6.27
2024-03-08T16:53:29.436Z,6.29
2024-03-08T16:55:58.861Z,6.31
2024-03-08T16:58:27.085Z,6.24
2024-03-08T17:00:55.204Z,6.35
2024-03-08T17:03:23.320Z,6.34
2024-03-08T17:05:55.516Z,6.37
2024-03-08T17:08:24.671Z,6.25
2024-03-08T17:10:56.602Z,6.36
2024-03-08T17:13:24.728Z,6.41
2024-03-08T17:15:54.417Z,6.39
2024-03-08T17:18:24.699Z,6.27
2024-03-08T17:20:52.785Z,6.28
2024-03-08T17:23:22.454Z,6.30
2024-03-08T17:25:50.422Z,6.40
2024-03-08T17:28:20.368Z,6.43
2024-03-08T17:30:48.501Z,6.44
2024-03-08T17:33:22.892Z,6.46
2024-03-08T17:35:54.124Z,6.44
2024-03-08T17:38:22.919Z,6.31
2024-03-08T17:40:51.201Z,6.13
2024-03-08T17:43:25.192Z,6.07
2024-03-08T17:45:56.719Z,6.22
2024-03-08T17:48:24.854Z,6.17
2024-03-08T17:50:55.417Z,6.13
2024-03-08T17:53:24.001Z,6.11
2024-03-08T17:55:53.118Z,6.21
2024-03-08T17:58:24.254Z,6.14
2024-03-08T18:00:54.729Z,6.32
2024-03-08T18:03:29.104Z,6.27
2024-03-08T18:05:57.589Z,6.18
2024-03-08T18:08:25.575Z,6.14
2024-03-08T18:10:54.119Z,6.14
2024-03-08T18:13:24.907Z,6.10
2024-03-08T18:15:53.255Z,6.22
2024-03-08T18:18:21.852Z,6.15
2024-03-08T18:20:50.155Z,6.13
2024-03-08T18:23:19.355Z,6.11
2024-03-08T18:25:48.152Z,6.13
2024-03-08T18:28:18.522Z,6.09
2024-03-08T18:30:50.706Z,6.14
2024-03-08T18:33:19.594Z,6.15
2024-03-08T18:35:48.746Z,6.11
2024-03-08T18:38:19.831Z,6.11
2024-03-08T18:40:49.341Z,6.09
2024-03-08T18:43:18.716Z,6.03
2024-03-08T18:45:48.576Z,6.10
2024-03-08T18:48:17.010Z,6.05
2024-03-08T18:50:47.004Z,6.04
2024-03-08T18:53:15.814Z,6.07
2024-03-08T18:55:44.867Z,6.06
2024-03-08T18:58:13.019Z,6.13
2024-03-08T19:00:43.739Z,6.13
2024-03-08T19:03:14.899Z,6.09
2024-03-08T19:05:43.959Z,6.07
2024-03-08T19:08:15.066Z,6.13
2024-03-08T19:10:44.666Z,6.09
2024-03-08T19:13:15.390Z,6.12
2024-03-08T19:15:44.074Z,6.13
2024-03-08T19:18:15.213Z,6.20
2024-03-08T19:20:44.096Z,6.18
2024-03-08T19:23:12.914Z,6.13
2024-03-08T19:25:43.204Z,6.14
2024-03-08T19:28:14.643Z,6.28
2024-03-08T19:30:44.117Z,6.28
2024-03-08T19:33:15.164Z,6.46
2024-03-08T19:35:46.133Z,6.43
2024-03-08T19:38:16.610Z,6.42
2024-03-08T19:40:46.268Z,6.46
2024-03-08T19:43:16.854Z,6.47
2024-03-08T19:45:46.549Z,6.49
2024-03-08T19:48:19.486Z,6.48
2024-03-08T19:50:48.053Z,6.49
2024-03-08T19:53:17.951Z,6.54
2024-03-08T19:55:51.944Z,6.59
2024-03-08T19:58:21.516Z,6.65
2024-03-08T20:00:50.670Z,6.63
2024-03-08T20:03:24.839Z,6.56
2024-03-08T20:05:55.082Z,6.55
2024-03-08T20:08:25.301Z,6.50
2024-03-08T20:10:54.033Z,6.50
2024-03-08T20:13:22.296Z,6.43
2024-03-08T20:15:55.168Z,6.56
2024-03-08T20:18:28.498Z,6.54
2024-03-08T20:20:57.072Z,6.54
2024-03-08T20:23:25.325Z,6.48
2024-03-08T20:25:53.599Z,6.50
2024-03-08T20:28:21.847Z,6.46
2024-03-08T20:30:50.102Z,6.53
2024-03-08T20:33:18.107Z,6.57
2024-03-08T20:35:51.291Z,6.59
2024-03-08T20:38:23.264Z,6.57
2024-03-08T20:40:53.242Z,6.59
2024-03-08T20:43:23.504Z,6.62
2024-03-08T20:45:51.852Z,6.65
2024-03-08T20:48:22.083Z,6.62
2024-03-08T20:50:53.336Z,6.61
2024-03-08T20:53:21.630Z,6.68
2024-03-08T20:55:51.497Z,6.71
2024-03-08T20:58:20.171Z,6.76
2024-03-08T21:00:55.658Z,6.75
2024-03-08T21:03:25.307Z,6.75
2024-03-08T21:05:55.711Z,6.69
2024-03-08T21:08:28.602Z,6.67
2024-03-08T21:10:58.069Z,6.68
2024-03-08T21:13:27.132Z,6.64
2024-03-08T21:15:55.778Z,6.64
2024-03-08T21:18:26.549Z,6.65
2024-03-08T21:20:57.001Z,6.56
2024-03-08T21:23:26.417Z,6.57
2024-03-08T21:25:54.806Z,6.56
2024-03-08T21:28:30.439Z,6.61
2024-03-08T21:31:00.539Z,6.60
2024-03-08T21:33:28.650Z,6.59
2024-03-08T21:36:00.279Z,6.53
2024-03-08T21:38:28.443Z,6.57
2024-03-08T21:41:02.907Z,6.57
2024-03-08T21:43:36.189Z,6.57
2024-03-08T21:46:04.982Z,6.54
2024-03-08T21:48:33.664Z,6.54
2024-03-08T21:51:04.491Z,6.57
2024-03-08T21:53:35.610Z,6.59
2024-03-08T21:56:06.200Z,6.58
2024-03-08T21:58:35.319Z,6.62
2024-03-08T22:01:06.041Z,6.63
2024-03-08T22:03:36.757Z,6.65
2024-03-08T22:06:11.921Z,6.68
2024-03-08T22:08:42.408Z,6.68
2024-03-08T22:11:10.927Z,6.71
2024-03-08T22:13:38.986Z,6.69
2024-03-08T22:16:10.057Z,6.69
2024-03-08T22:18:38.819Z,6.70
2024-03-08T22:21:08.493Z,6.65
2024-03-08T22:23:37.758Z,6.66
2024-03-08T22:26:10.853Z,6.56
2024-03-08T22:28:39.593Z,6.53
2024-03-08T22:31:07.828Z,6.47
2024-03-08T22:33:36.008Z,6.51
2024-03-08T22:36:07.911Z,6.55
2024-03-08T22:38:38.188Z,6.59
2024-03-08T22:41:06.567Z,6.59
2024-03-08T22:43:36.276Z,6.51
2024-03-08T22:46:06.243Z,6.53
2024-03-08T22:48:35.284Z,6.60
2024-03-08T22:51:04.500Z,6.60
2024-03-08T22:53:32.503Z,6.55
2024-03-08T22:56:01.900Z,6.46
2024-03-08T22:58:30.404Z,6.34
2024-03-08T23:00:58.507Z,6.39
2024-03-08T23:03:26.519Z,6.34
2024-03-08T23:05:54.757Z,6.31
2024-03-08T23:08:23.274Z,6.31
2024-03-08T23:10:51.296Z,6.32
2024-03-08T23:13:21.041Z,6.37
2024-03-08T23:15:49.011Z,6.41
2024-03-08T23:18:17.516Z,6.41
2024-03-08T23:20:45.546Z,6.36
2024-03-08T23:23:13.786Z,6.37
2024-03-08T23:25:42.080Z,6.33
2024-03-08T23:28:13.253Z,6.32
2024-03-08T23:30:45.686Z,6.29
2024-03-08T23:33:15.849Z,6.27
2024-03-08T23:35:45.918Z,6.21
2024-03-08T23:38:14.238Z,6.20
2024-03-08T23:40:42.751Z,6.12
2024-03-08T23:43:10.817Z,6.10
2024-03-08T23:45:58.686Z,6.15
2024-03-08T23:48:27.170Z,6.16
2024-03-08T23:50:55.547Z,6.10
2024-03-08T23:53:23.531Z,6.22
2024-03-08T23:55:51.453Z,6.23
2024-03-08T23:58:21.419Z,6.19
